Time;durP1;ratioP1;P1;durP2;ratioP2;P2;SDS_P1;SDS_P2;PMS_P1;PMS_P2;Temp;Humidity;BMP_temperature;BMP_pressure;BME280_temperature;BME280_humidity;BME280_pressure;Samples;Min_cycle;Max_cycle;Signal;HPM_P1;HPM_P2
2021/12/18 07:59:13;;;;;;;42.75;29.55;;;;;;;7.71;98.08;103852.78;5301369;27;20400;-67
2021/12/18 08:01:44;;;;;;;14.02;10.52;;;;;;;7.74;98.70;103851.53;5301180;28;20475;-67
2021/12/18 08:04:16;;;;;;;14.40;8.02;;;;;;;7.95;100.00;103853.44;5296335;28;20078;-65
2021/12/18 08:06:47;;;;;;;26.58;10.32;;;;;;;8.16;100.00;103853.41;5297071;28;20050;-67
2021/12/18 08:09:18;;;;;;;16.73;7.20;;;;;;;8.49;100.00;103855.59;5279893;28;20033;-68
2021/12/18 08:11:50;;;;;;;12.52;7.40;;;;;;;8.59;99.54;103852.47;5288460;28;20021;-68
2021/12/18 08:14:21;;;;;;;11.65;7.20;;;;;;;8.68;98.71;103854.00;5280019;28;20025;-67
2021/12/18 08:16:53;;;;;;;16.65;7.22;;;;;;;8.81;97.61;103853.25;5292321;28;20034;-68
2021/12/18 08:19:24;;;;;;;10.07;5.78;;;;;;;8.75;96.32;103854.06;5300044;28;20028;-68
2021/12/18 08:21:55;;;;;;;10.40;6.65;;;;;;;8.61;95.32;103859.50;5300357;28;20048;-66
2021/12/18 08:24:27;;;;;;;19.52;14.95;;;;;;;8.88;96.32;103863.28;5284206;28;20490;-66
2021/12/18 08:26:58;;;;;;;18.40;13.88;;;;;;;8.76;95.41;103853.00;5279395;28;20394;-69
2021/12/18 08:29:29;;;;;;;10.32;7.28;;;;;;;8.92;95.28;103860.94;5293989;28;20020;-68
2021/12/18 08:32:01;;;;;;;12.23;7.53;;;;;;;8.88;94.72;103854.13;5285466;28;20043;-70
2021/12/18 08:34:32;;;;;;;12.02;8.20;;;;;;;8.85;94.77;103860.09;5290242;28;20028;-70
2021/12/18 08:37:06;;;;;;;11.25;6.55;;;;;;;8.83;94.81;103853.88;5282768;28;20024;-68
2021/12/18 08:39:42;;;;;;;9.70;6.72;;;;;;;8.86;94.82;103856.25;5295177;28;20028;-69
2021/12/18 08:42:17;;;;;;;9.63;7.20;;;;;;;8.72;94.70;103855.34;5291140;28;20505;-66
2021/12/18 08:44:50;;;;;;;11.10;7.07;;;;;;;9.02;94.47;103858.66;5280586;28;20025;-69
2021/12/18 08:47:25;;;;;;;8.63;6.22;;;;;;;8.80;94.32;103851.53;5287505;28;20052;-71
2021/12/18 08:50:00;;;;;;;8.77;6.00;;;;;;;8.93;94.72;103862.69;5278758;28;20151;-69
2021/12/18 08:52:31;;;;;;;11.85;6.45;;;;;;;8.95;94.18;103857.78;5278396;28;20073;-70
2021/12/18 08:55:04;;;;;;;9.23;5.70;;;;;;;9.01;93.50;103859.72;5278849;28;20099;-70
2021/12/18 08:57:36;;;;;;;7.55;5.43;;;;;;;9.05;94.84;103855.50;5278501;28;20052;-71
2021/12/18 09:00:10;;;;;;;7.80;5.45;;;;;;;8.91;93.70;103859.25;5294965;28;20029;-71
2021/12/18 09:02:42;;;;;;;7.63;5.57;;;;;;;8.83;93.69;103857.50;5288459;28;20017;-71
2021/12/18 09:05:14;;;;;;;6.93;5.22;;;;;;;8.77;93.58;103863.00;5296833;28;20032;-70
2021/12/18 09:07:46;;;;;;;8.35;5.10;;;;;;;8.82;94.10;103854.94;5298554;28;20032;-72
2021/12/18 09:10:18;;;;;;;6.57;4.90;;;;;;;8.73;93.14;103862.56;5282535;28;20043;-71
2021/12/18 09:12:49;;;;;;;8.07;4.90;;;;;;;8.96;94.74;103858.63;5270141;28;20048;-71
2021/12/18 09:15:21;;;;;;;8.57;6.03;;;;;;;8.77;93.53;103863.00;5277909;28;20109;-70
2021/12/18 09:17:53;;;;;;;9.15;5.97;;;;;;;8.85;94.27;103862.84;5273363;28;20032;-71
2021/12/18 09:20:24;;;;;;;7.60;5.78;;;;;;;8.85;94.73;103854.56;5270547;28;20032;-71
2021/12/18 09:22:58;;;;;;;8.65;6.10;;;;;;;8.83;94.02;103859.44;5268148;28;20028;-73
2021/12/18 09:25:29;;;;;;;7.28;5.38;;;;;;;8.93;94.25;103851.59;5285588;28;20047;-71
2021/12/18 09:28:00;;;;;;;7.72;5.45;;;;;;;9.06;94.71;103853.56;5284069;28;20033;-71
2021/12/18 09:30:32;;;;;;;7.97;5.05;;;;;;;8.90;93.04;103852.88;5283742;28;20177;-70
2021/12/18 09:33:03;;;;;;;8.02;5.15;;;;;;;8.85;92.47;103849.84;5278779;28;20028;-70
2021/12/18 09:35:34;;;;;;;6.72;4.65;;;;;;;8.71;92.28;103862.75;5284151;28;20468;-71
2021/12/18 09:38:09;;;;;;;6.18;4.10;;;;;;;8.89;93.49;103866.91;5268936;28;20100;-73
2021/12/18 09:40:40;;;;;;;7.55;4.40;;;;;;;8.95;93.82;103863.31;5275612;28;20383;-69
2021/12/18 09:43:11;;;;;;;9.43;6.45;;;;;;;8.79;92.89;103860.88;5270421;28;20033;-68
2021/12/18 09:45:49;;;;;;;10.07;6.35;;;;;;;8.83;92.41;103856.66;5284370;28;20024;-68
2021/12/18 09:48:22;;;;;;;6.20;4.20;;;;;;;8.77;92.31;103858.34;5266998;28;20397;-68
2021/12/18 09:50:56;;;;;;;7.20;3.88;;;;;;;9.07;93.02;103850.59;5283350;28;20032;-70
2021/12/18 09:53:27;;;;;;;4.90;3.95;;;;;;;8.95;92.45;103857.78;5277949;28;20056;-69
2021/12/18 09:55:59;;;;;;;6.82;4.47;;;;;;;8.96;92.21;103851.19;5263880;28;20122;-70
2021/12/18 09:58:31;;;;;;;4.65;3.15;;;;;;;8.97;91.83;103850.13;5282167;28;20056;-68
2021/12/18 10:01:02;;;;;;;32.65;21.02;;;;;;;9.05;91.97;103844.44;5276519;28;20078;-68
2021/12/18 10:03:58;;;;;;;18.10;13.75;;;;;;;9.16;92.23;103851.28;5269269;28;20075;-69
2021/12/18 10:06:44;;;;;;;5.90;4.50;;;;;;;8.97;92.45;103846.50;5266843;28;20025;-69
2021/12/18 10:09:18;;;;;;;10.25;4.80;;;;;;;9.17;92.33;103838.28;5263657;28;20283;-69
2021/12/18 10:12:00;;;;;;;5.32;4.07;;;;;;;9.09;91.63;103837.41;5268179;28;20128;-69
2021/12/18 10:14:36;;;;;;;7.18;4.35;;;;;;;9.03;91.68;103840.16;5272061;28;20021;-69
2021/12/18 10:17:18;;;;;;;;;;;;;;;9.20;92.73;103841.47;5274402;28;20024;-70
2021/12/18 10:19:51;;;;;;;40.42;9.55;;;;;;;9.38;92.24;103834.50;5263275;28;19917;-69
2021/12/18 10:22:22;;;;;;;25.80;6.93;;;;;;;9.30;91.75;103824.47;5262388;28;20367;-69
2021/12/18 10:25:07;;;;;;;6.45;4.63;;;;;;;9.04;91.94;103823.31;5266416;28;20039;-70
2021/12/18 10:27:41;;;;;;;17.58;7.20;;;;;;;9.16;92.10;103818.03;5275507;28;20493;-68
2021/12/18 10:30:20;;;;;;;120.18;87.32;;;;;;;9.07;91.60;103827.59;5262095;28;20436;-69
2021/12/18 10:33:04;;;;;;;36.35;21.02;;;;;;;9.34;91.79;103823.00;5277639;28;20123;-68
2021/12/18 10:35:52;;;;;;;8.40;5.50;;;;;;;8.95;91.94;103816.28;5280075;28;20035;-67
2021/12/18 10:38:48;;;;;;;6.45;4.70;;;;;;;8.99;91.90;103816.69;5261547;28;20106;-69
2021/12/18 10:41:28;;;;;;;10.32;5.20;;;;;;;9.01;92.03;103820.97;5263109;28;20052;-68
2021/12/18 10:44:08;;;;;;;30.02;11.15;;;;;;;9.18;92.84;103820.59;5265847;28;20483;-67
2021/12/18 10:46:43;;;;;;;18.45;6.93;;;;;;;8.91;92.80;103823.28;5276735;28;20043;-68
2021/12/18 10:49:17;;;;;;;31.63;7.70;;;;;;;9.03;92.70;103826.31;5282505;28;20407;-67
2021/12/18 10:51:50;;;;;;;7.72;3.95;;;;;;;8.85;92.11;103822.19;5283500;28;20480;-67
2021/12/18 10:54:22;;;;;;;7.43;5.05;;;;;;;8.78;92.49;103826.81;5279524;28;20036;-67
2021/12/18 10:56:55;;;;;;;7.80;4.43;;;;;;;8.63;91.97;103817.81;5268335;28;20345;-67
2021/12/18 10:59:31;;;;;;;57.13;36.45;;;;;;;8.93;92.58;103810.09;5282283;28;20024;-68
2021/12/18 11:02:09;;;;;;;12.68;6.05;;;;;;;8.73;92.68;103817.44;5271742;28;20044;-69
2021/12/18 11:04:42;;;;;;;7.05;4.15;;;;;;;8.77;92.83;103818.72;5274289;28;20020;-68
2021/12/18 11:07:18;;;;;;;5.45;4.05;;;;;;;8.74;92.20;103811.69;5282407;28;20033;-67
2021/12/18 11:10:11;;;;;;;6.88;4.07;;;;;;;8.78;92.40;103812.13;5278118;28;20109;-67
2021/12/18 11:15:30;;;;;;;15.45;6.75;;;;;;;9.12;92.46;103819.50;5282696;28;20396;-68
2021/12/18 11:18:02;;;;;;;6.68;5.25;;;;;;;8.71;91.16;103820.41;5277528;28;20040;-67
2021/12/18 11:20:34;;;;;;;13.35;5.53;;;;;;;8.95;91.05;103813.50;5274295;28;20388;-67
2021/12/18 11:23:05;;;;;;;14.48;4.47;;;;;;;8.84;90.40;103814.91;5279893;28;20504;-68
2021/12/18 11:25:39;;;;;;;18.88;9.35;;;;;;;8.79;90.16;103811.06;5278367;28;20081;-67
2021/12/18 11:28:12;;;;;;;16.33;5.82;;;;;;;9.06;90.59;103809.28;5264228;28;20028;-67
2021/12/18 11:30:44;;;;;;;8.43;5.20;;;;;;;9.01;90.89;103804.38;5263269;28;20036;-68
2021/12/18 11:33:15;;;;;;;5.03;4.03;;;;;;;8.91;90.77;103801.13;5268404;28;20029;-67
2021/12/18 11:35:47;;;;;;;5.57;3.30;;;;;;;8.81;91.10;103807.03;5269430;28;20036;-67
2021/12/18 11:38:19;;;;;;;6.38;4.00;;;;;;;9.17;92.01;103805.91;5282257;28;20081;-69
2021/12/18 11:40:51;;;;;;;5.35;4.47;;;;;;;9.00;91.06;103802.66;5272377;28;20036;-68
2021/12/18 11:43:42;;;;;;;8.00;6.97;;;;;;;9.05;91.10;103800.13;5271489;28;20025;-69
2021/12/18 11:46:41;;;;;;;4.55;3.70;;;;;;;9.06;91.39;103799.06;5261589;28;20029;-70
2021/12/18 11:49:12;;;;;;;20.77;18.73;;;;;;;8.89;91.66;103800.47;5266555;28;20039;-70
2021/12/18 11:51:58;;;;;;;10.68;9.10;;;;;;;8.99;90.97;103805.63;5279121;28;20036;-70
2021/12/18 11:54:43;;;;;;;28.17;22.92;;;;;;;8.99;91.64;103800.94;5281512;28;20484;-73
2021/12/18 11:57:54;;;;;;;8.98;6.43;;;;;;;9.06;91.77;103787.97;5280399;28;20041;-73
2021/12/18 12:00:35;;;;;;;7.00;4.97;;;;;;;8.98;92.10;103781.78;5260713;28;20123;-73
2021/12/18 12:03:09;;;;;;;6.10;4.95;;;;;;;8.83;92.12;103777.25;5260566;28;20542;-73
2021/12/18 12:05:52;;;;;;;6.55;5.40;;;;;;;8.83;91.62;103777.25;5268577;28;20363;-72
2021/12/18 12:08:28;;;;;;;6.97;5.15;;;;;;;8.93;92.13;103774.09;5269309;28;20051;-72
2021/12/18 12:11:15;;;;;;;7.47;5.15;;;;;;;8.84;93.08;103776.19;5280009;28;20040;-69
2021/12/18 12:14:20;;;;;;;4.32;3.90;;;;;;;8.71;92.03;103776.97;5281163;28;20507;-71
2021/12/18 12:16:51;;;;;;;5.20;4.13;;;;;;;8.84;92.39;103764.25;5281066;28;20350;-72
2021/12/18 12:19:44;;;;;;;6.45;4.53;;;;;;;8.63;92.18;103766.09;5282025;28;20021;-72
2021/12/18 12:22:52;;;;;;;6.20;4.07;;;;;;;8.89;92.41;103764.50;5267171;28;20055;-70
2021/12/18 12:25:36;;;;;;;3.67;3.05;;;;;;;8.75;92.18;103762.75;5272439;28;20112;-70
2021/12/18 12:28:16;;;;;;;6.15;4.65;;;;;;;8.70;91.66;103757.84;5280519;28;20021;-69
2021/12/18 12:30:52;;;;;;;4.53;3.80;;;;;;;8.80;91.56;103758.28;5280991;28;20387;-70
2021/12/18 12:33:29;;;;;;;7.68;4.95;;;;;;;8.63;91.70;103756.94;5281916;28;20388;-68
2021/12/18 12:36:09;;;;;;;5.30;4.30;;;;;;;8.56;92.62;103753.28;5264251;28;20555;-69
2021/12/18 12:38:59;;;;;;;6.80;6.10;;;;;;;8.65;92.64;103755.69;5260409;28;20052;-69
2021/12/18 12:41:37;;;;;;;4.43;3.63;;;;;;;8.66;92.81;103757.38;5261523;28;20033;-68
2021/12/18 12:44:28;;;;;;;7.65;6.10;;;;;;;8.78;92.52;103754.03;5278562;28;20028;-68
2021/12/18 12:47:32;;;;;;;7.78;6.10;;;;;;;8.71;91.43;103746.53;5285263;28;20522;-69
2021/12/18 12:50:12;;;;;;;4.70;3.50;;;;;;;8.53;91.55;103749.00;5240897;28;20063;-70
2021/12/18 12:53:01;;;;;;;8.98;6.25;;;;;;;8.75;91.71;103752.53;5285125;28;20513;-71
2021/12/18 12:55:42;;;;;;;7.22;5.88;;;;;;;8.75;91.96;103746.16;5276291;28;20020;-71
2021/12/18 12:58:19;;;;;;;10.25;8.45;;;;;;;8.75;91.18;103744.22;5273841;28;20045;-69
2021/12/18 13:00:57;;;;;;;5.32;3.63;;;;;;;8.70;91.36;103739.31;5274735;28;20025;-72
2021/12/18 13:03:32;;;;;;;4.50;4.05;;;;;;;8.56;90.57;103740.28;5266224;28;20025;-69
2021/12/18 13:06:09;;;;;;;5.80;3.83;;;;;;;8.53;90.26;103734.34;5281867;28;20107;-69
2021/12/18 13:08:42;;;;;;;21.27;18.65;;;;;;;8.82;91.71;103730.41;5277286;28;20025;-68
2021/12/18 13:11:20;;;;;;;5.10;3.78;;;;;;;8.56;91.40;103737.53;5264987;28;20032;-68
2021/12/18 13:13:53;;;;;;;10.27;3.78;;;;;;;8.70;90.54;103730.16;5272993;28;20047;-69
2021/12/18 13:16:24;;;;;;;3.95;3.55;;;;;;;8.50;90.52;103730.06;5268282;28;20021;-72
2021/12/18 13:18:58;;;;;;;4.30;3.88;;;;;;;8.56;90.99;103726.47;5265614;28;20439;-71
2021/12/18 13:21:35;;;;;;;4.25;3.55;;;;;;;8.48;90.45;103729.41;5263943;28;20097;-70
2021/12/18 13:24:09;;;;;;;4.05;3.65;;;;;;;8.53;90.56;103728.81;5264777;28;20029;-71
2021/12/18 13:26:43;;;;;;;4.68;4.28;;;;;;;8.50;90.56;103719.00;5270965;28;20069;-72
2021/12/18 13:29:21;;;;;;;9.18;8.23;;;;;;;8.48;90.99;103727.50;5270868;28;20028;-71
2021/12/18 13:31:58;;;;;;;3.58;3.25;;;;;;;8.34;90.14;103716.56;5283578;28;20492;-70
2021/12/18 13:34:32;;;;;;;3.85;3.10;;;;;;;8.35;91.15;103719.09;5265852;28;20021;-71
2021/12/18 13:37:11;;;;;;;3.22;2.92;;;;;;;8.25;89.45;103716.72;5264125;28;20036;-70
2021/12/18 13:39:46;;;;;;;13.23;10.10;;;;;;;8.24;89.47;103709.47;5266298;28;20028;-72
2021/12/18 13:42:22;;;;;;;5.65;4.10;;;;;;;8.30;89.67;103707.81;5270443;28;20040;-70
2021/12/18 13:44:59;;;;;;;18.27;15.43;;;;;;;8.13;89.83;103715.59;5281371;28;20536;-69
2021/12/18 13:47:36;;;;;;;4.97;4.50;;;;;;;8.20;89.58;103713.69;5275090;28;20036;-69
2021/12/18 13:50:11;;;;;;;6.80;5.65;;;;;;;8.21;90.14;103709.06;5283515;28;20035;-70
2021/12/18 13:52:52;;;;;;;4.40;4.00;;;;;;;8.27;89.52;103703.53;5276844;28;20036;-70
2021/12/18 13:55:36;;;;;;;4.78;4.38;;;;;;;8.27;90.17;103711.84;5271868;28;20032;-70
2021/12/18 13:58:19;;;;;;;4.80;4.40;;;;;;;8.14;90.77;103702.63;5283567;28;20055;-70
2021/12/18 14:01:26;;;;;;;5.10;4.60;;;;;;;8.15;90.99;103701.56;5304165;28;20539;-71
2021/12/18 14:04:02;;;;;;;6.55;4.18;;;;;;;8.04;90.69;103702.97;5239449;28;20538;-70
2021/12/18 14:06:36;;;;;;;6.60;5.30;;;;;;;7.94;90.97;103703.34;5267306;28;20020;-70
2021/12/18 14:09:16;;;;;;;5.45;4.95;;;;;;;7.94;91.57;103703.34;5264839;28;20131;-70
2021/12/18 14:12:07;;;;;;;5.53;4.53;;;;;;;8.12;91.20;103702.81;5280798;28;20033;-70
2021/12/18 14:14:45;;;;;;;5.60;4.97;;;;;;;8.11;91.60;103709.41;5280469;28;20021;-71
2021/12/18 14:17:36;;;;;;;5.82;4.72;;;;;;;8.18;92.37;103704.78;5280228;28;20494;-71
2021/12/18 14:20:13;;;;;;;10.45;8.90;;;;;;;8.21;91.40;103709.06;5275171;28;20033;-72
2021/12/18 14:22:44;;;;;;;5.60;4.47;;;;;;;8.09;90.51;103710.69;5268399;28;20487;-70
2021/12/18 14:25:18;;;;;;;5.88;4.85;;;;;;;7.96;90.70;103708.69;5273085;28;20033;-69
2021/12/18 14:27:54;;;;;;;6.70;5.97;;;;;;;8.06;92.10;103706.41;5272265;28;20021;-70
2021/12/18 14:30:32;;;;;;;8.73;7.78;;;;;;;8.16;91.30;103703.28;5278429;28;20040;-71
2021/12/18 14:33:12;;;;;;;6.68;5.22;;;;;;;8.16;91.38;103701.38;5263171;28;20123;-71
2021/12/18 14:35:51;;;;;;;5.78;5.13;;;;;;;8.11;91.62;103703.88;5292493;28;20542;-70
2021/12/18 14:38:23;;;;;;;5.35;4.85;;;;;;;8.05;90.91;103700.03;5278562;28;20039;-73
2021/12/18 14:41:00;;;;;;;5.88;5.30;;;;;;;8.09;90.84;103706.00;5271650;28;20492;-71
2021/12/18 14:43:32;;;;;;;8.07;6.35;;;;;;;7.94;89.96;103702.50;5266286;28;20021;-73
2021/12/18 14:46:17;;;;;;;8.45;6.40;;;;;;;8.01;90.08;103703.41;5265302;28;20031;-72
2021/12/18 14:48:52;;;;;;;6.25;5.30;;;;;;;7.79;89.85;103695.16;5283820;28;20024;-71
2021/12/18 14:51:25;;;;;;;6.00;5.40;;;;;;;7.82;90.72;103700.31;5283267;28;20120;-72
2021/12/18 14:54:01;;;;;;;11.40;7.97;;;;;;;7.89;91.39;103699.47;5283548;28;20024;-72
2021/12/18 14:56:33;;;;;;;7.78;6.85;;;;;;;7.72;90.98;103691.53;5271868;28;20104;-71
2021/12/18 14:59:17;;;;;;;6.53;5.90;;;;;;;7.97;90.58;103694.63;5264492;28;20242;-71
2021/12/18 15:02:01;;;;;;;7.55;6.75;;;;;;;7.95;90.88;103698.66;5281783;28;20026;-70
2021/12/18 15:04:35;;;;;;;13.93;11.05;;;;;;;7.89;91.18;103692.03;5278069;28;20098;-70
2021/12/18 15:07:25;;;;;;;11.02;9.93;;;;;;;7.99;92.08;103699.97;5279189;28;20024;-71
2021/12/18 15:10:03;;;;;;;8.13;6.55;;;;;;;7.98;91.49;103701.03;5265359;28;20408;-70
2021/12/18 15:12:37;;;;;;;8.18;7.28;;;;;;;7.82;91.62;103697.53;5280418;28;20435;-70
2021/12/18 15:15:13;;;;;;;8.73;7.88;;;;;;;7.94;91.37;103705.25;5271366;28;20090;-71
2021/12/18 15:17:45;;;;;;;9.70;7.25;;;;;;;7.89;91.44;103705.84;5278090;28;20048;-71
2021/12/18 15:20:16;;;;;;;9.50;8.45;;;;;;;7.93;91.26;103704.41;5270544;28;20032;-71
2021/12/18 15:22:47;;;;;;;8.43;7.43;;;;;;;7.65;91.39;103707.19;5262436;28;20037;-72
2021/12/18 15:25:19;;;;;;;8.55;7.75;;;;;;;7.70;91.46;103709.34;5280580;28;20086;-72
2021/12/18 15:27:50;;;;;;;7.90;7.10;;;;;;;7.83;91.15;103707.53;5266500;28;20036;-71
2021/12/18 15:30:23;;;;;;;8.82;7.35;;;;;;;7.69;90.20;103708.47;5282726;28;20078;-72
2021/12/18 15:32:57;;;;;;;8.23;7.10;;;;;;;7.55;91.18;103714.97;5282158;28;20029;-72
2021/12/18 15:35:28;;;;;;;9.85;8.18;;;;;;;7.58;91.94;103709.03;5270190;28;20089;-72
2021/12/18 15:38:00;;;;;;;9.57;8.32;;;;;;;7.66;91.71;103706.13;5281859;28;20121;-73
2021/12/18 15:40:32;;;;;;;8.75;7.85;;;;;;;7.68;91.73;103711.44;5281988;28;20471;-73
2021/12/18 15:43:06;;;;;;;8.48;7.68;;;;;;;7.61;91.43;103708.63;5276321;28;20028;-74
2021/12/18 15:45:38;;;;;;;8.48;7.65;;;;;;;7.63;91.00;103703.75;5272341;28;20032;-73
2021/12/18 15:48:09;;;;;;;10.00;9.02;;;;;;;7.54;91.90;103707.72;5275360;28;20036;-72
2021/12/18 15:50:42;;;;;;;22.25;18.58;;;;;;;7.60;91.54;103713.31;5267395;28;20544;-72
2021/12/18 15:53:13;;;;;;;9.73;8.73;;;;;;;7.56;92.11;103722.19;5261755;28;20032;-73
2021/12/18 15:55:45;;;;;;;9.13;8.23;;;;;;;7.60;91.37;103712.44;5262256;28;20021;-74
2021/12/18 15:58:18;;;;;;;10.38;9.38;;;;;;;7.52;91.40;103716.22;5271020;28;20506;-74
2021/12/18 16:00:50;;;;;;;10.35;9.35;;;;;;;7.51;92.09;103713.63;5263172;28;20056;-75
2021/12/18 16:03:26;;;;;;;9.75;8.77;;;;;;;7.59;91.92;103721.78;5261941;28;20068;-76
2021/12/18 16:05:58;;;;;;;10.77;9.77;;;;;;;7.61;92.15;103716.91;5273370;28;20095;-74
2021/12/18 16:08:29;;;;;;;9.63;8.63;;;;;;;7.56;91.86;103717.50;5270242;28;20037;-74
2021/12/18 16:11:01;;;;;;;9.27;8.13;;;;;;;7.58;91.41;103709.03;5266097;28;20025;-74
2021/12/18 16:13:32;;;;;;;12.60;9.88;;;;;;;7.60;90.86;103715.22;5263503;28;20021;-76
2021/12/18 16:16:04;;;;;;;9.40;8.50;;;;;;;7.45;91.02;103712.53;5277548;28;20071;-74
2021/12/18 16:18:39;;;;;;;10.27;9.20;;;;;;;7.40;91.19;103707.59;5273577;28;20025;-75
2021/12/18 16:21:11;;;;;;;10.98;9.50;;;;;;;7.42;91.26;103710.19;5270838;28;20036;-73
2021/12/18 16:23:42;;;;;;;10.90;9.80;;;;;;;7.44;91.58;103708.06;5278283;28;20021;-74
2021/12/18 16:26:14;;;;;;;10.80;9.60;;;;;;;7.46;90.91;103717.00;5285519;28;20120;-74
2021/12/18 16:28:45;;;;;;;9.68;8.68;;;;;;;7.27;89.89;103713.00;5269471;28;20373;-73
2021/12/18 16:31:18;;;;;;;10.80;9.30;;;;;;;7.21;90.66;103708.28;5279812;28;20047;-73
2021/12/18 16:33:49;;;;;;;11.07;9.98;;;;;;;7.28;90.64;103708.31;5282443;28;20116;-74
2021/12/18 16:36:20;;;;;;;10.80;9.65;;;;;;;7.15;90.45;103709.06;5285584;28;20447;-71
2021/12/18 16:38:52;;;;;;;11.35;10.18;;;;;;;7.31;90.99;103714.34;5274784;28;20361;-71
2021/12/18 16:41:23;;;;;;;10.60;9.60;;;;;;;7.24;90.37;103710.66;5281213;28;20029;-71
2021/12/18 16:43:54;;;;;;;15.75;13.82;;;;;;;7.21;90.64;103719.31;5283235;28;20071;-72
2021/12/18 16:46:27;;;;;;;13.65;11.93;;;;;;;7.32;90.17;103706.91;5272866;28;20032;-75
2021/12/18 16:48:58;;;;;;;9.85;8.85;;;;;;;7.36;89.56;103709.06;5275243;28;20028;-74
2021/12/18 16:51:30;;;;;;;11.00;9.90;;;;;;;7.46;89.68;103702.34;5277423;28;20028;-74
2021/12/18 16:54:02;;;;;;;30.33;24.42;;;;;;;7.36;89.41;103706.31;5284869;28;20028;-72
2021/12/18 16:56:34;;;;;;;12.80;11.50;;;;;;;7.51;89.21;103699.81;5284737;28;20021;-69
2021/12/18 16:59:05;;;;;;;12.48;11.20;;;;;;;7.49;89.22;103693.63;5279549;28;20053;-71
2021/12/18 17:01:37;;;;;;;11.30;10.07;;;;;;;7.61;89.29;103698.41;5265469;28;20120;-72
2021/12/18 17:04:14;;;;;;;13.07;11.77;;;;;;;7.44;88.77;103693.38;5280650;28;20455;-71
2021/12/18 17:06:46;;;;;;;13.73;12.32;;;;;;;7.39;89.53;103711.44;5284392;28;20056;-69
2021/12/18 17:09:18;;;;;;;19.50;17.40;;;;;;;7.50;89.51;103706.41;5270758;28;20044;-72
2021/12/18 17:11:50;;;;;;;14.50;11.63;;;;;;;7.31;89.16;103707.94;5264049;28;20037;-71
2021/12/18 17:14:21;;;;;;;10.68;9.52;;;;;;;7.17;88.91;103698.69;5277327;28;20056;-72
2021/12/18 17:16:56;;;;;;;11.70;10.50;;;;;;;7.27;89.43;103698.34;5267697;28;20021;-72
2021/12/18 17:19:28;;;;;;;10.32;9.25;;;;;;;7.19;89.48;103702.09;5264083;28;20033;-72
2021/12/18 17:21:59;;;;;;;10.60;9.50;;;;;;;7.18;89.18;103711.41;5277851;28;20563;-72
2021/12/18 17:24:30;;;;;;;10.57;9.50;;;;;;;7.23;90.02;103716.34;5272672;28;20027;-72
2021/12/18 17:27:03;;;;;;;11.27;10.07;;;;;;;7.31;90.04;103717.09;5270868;28;20074;-71
2021/12/18 17:29:34;;;;;;;12.48;11.18;;;;;;;7.34;89.74;103708.41;5274408;28;20426;-72
